Time;durP1;ratioP1;P1;durP2;ratioP2;P2;SDS_P1;SDS_P2;PMS_P1;PMS_P2;Temp;Humidity;BMP_temperature;BMP_pressure;BME280_temperature;BME280_humidity;BME280_pressure;Samples;Min_cycle;Max_cycle;Signal;HPM_P1;HPM_P2
2022/11/18 00:00:52;;;;;;;7.13;3.10;;;20.90;26.00;;;;;;5065790;28;20069;-67
2022/11/18 00:03:19;;;;;;;12.50;4.72;;;20.90;26.10;;;;;;5065774;28;20081;-63
2022/11/18 00:05:56;;;;;;;14.75;3.63;;;20.80;26.30;;;;;;5038580;28;20090;-67
2022/11/18 00:08:23;;;;;;;12.60;3.17;;;20.70;26.40;;;;;;5064237;28;20076;-66
2022/11/18 00:10:50;;;;;;;9.30;3.03;;;20.70;26.20;;;;;;5064886;28;20112;-65
2022/11/18 00:16:04;;;;;;;8.18;2.45;;;20.50;26.70;;;;;;5057675;28;20092;-65
2022/11/18 00:18:30;;;;;;;13.80;2.47;;;20.40;26.10;;;;;;5042435;28;20089;-67
2022/11/18 00:21:07;;;;;;;7.68;1.98;;;20.40;26.00;;;;;;5064067;28;20157;-65
2022/11/18 00:23:34;;;;;;;9.98;2.40;;;20.30;25.70;;;;;;5060748;28;20065;-65
2022/11/18 00:26:13;;;;;;;17.08;2.30;;;20.30;26.00;;;;;;5062673;28;20207;-66
2022/11/18 00:28:40;;;;;;;18.05;2.22;;;20.20;25.70;;;;;;5060606;28;20477;-65
2022/11/18 00:31:10;;;;;;;14.10;2.83;;;20.10;26.30;;;;;;5059803;28;20077;-64
2022/11/18 00:33:37;;;;;;;12.80;2.70;;;20.10;27.10;;;;;;5063903;28;20538;-65
2022/11/18 00:36:06;;;;;;;11.10;3.08;;;19.90;27.40;;;;;;5064068;28;20073;-65
2022/11/18 00:38:32;;;;;;;24.02;4.70;;;19.90;27.20;;;;;;5060056;28;20367;-66
2022/11/18 00:41:07;;;;;;;19.00;3.97;;;19.80;27.60;;;;;;5066380;28;20099;-65
2022/11/18 00:43:34;;;;;;;15.02;4.68;;;19.70;27.80;;;;;;5044500;28;20144;-66
2022/11/18 00:46:01;;;;;;;12.98;3.90;;;19.70;27.70;;;;;;5064003;28;20069;-65
2022/11/18 00:48:27;;;;;;;17.20;3.83;;;19.60;28.00;;;;;;5052895;28;20084;-65
2022/11/18 00:50:56;;;;;;;21.13;4.72;;;19.50;28.40;;;;;;5040766;28;20073;-65
2022/11/18 00:53:24;;;;;;;16.85;4.07;;;19.50;28.30;;;;;;5057736;28;20073;-65
2022/11/18 00:55:50;;;;;;;13.38;4.10;;;19.40;28.30;;;;;;5057808;28;20112;-65
2022/11/18 00:58:18;;;;;;;17.40;3.78;;;19.30;28.40;;;;;;5044109;28;20532;-68
2022/11/18 01:00:47;;;;;;;19.65;4.25;;;19.20;28.40;;;;;;5060744;28;20152;-66
2022/11/18 01:03:14;;;;;;;19.52;4.50;;;19.10;28.90;;;;;;5064398;28;20160;-65
2022/11/18 01:05:40;;;;;;;34.25;4.82;;;19.00;29.40;;;;;;5062987;28;20073;-67
2022/11/18 01:08:08;;;;;;;24.45;4.57;;;18.90;29.80;;;;;;5060042;28;20073;-66
2022/11/18 01:10:36;;;;;;;31.30;4.47;;;18.80;30.30;;;;;;5055387;28;20085;-65
2022/11/18 01:13:18;;;;;;;34.20;4.78;;;18.80;30.50;;;;;;5060955;28;20082;-66
2022/11/18 01:15:48;;;;;;;25.55;4.20;;;18.70;30.80;;;;;;5043164;28;20442;-65
2022/11/18 01:18:16;;;;;;;31.15;4.15;;;18.70;31.40;;;;;;5063109;28;20070;-67
2022/11/18 01:20:44;;;;;;;29.75;4.45;;;18.50;32.00;;;;;;5060426;28;20522;-65
2022/11/18 01:23:11;;;;;;;28.35;5.15;;;18.50;32.20;;;;;;5064003;28;20085;-65
2022/11/18 01:25:40;;;;;;;20.25;4.47;;;18.30;32.20;;;;;;5063237;28;20163;-65
2022/11/18 01:28:06;;;;;;;28.17;4.82;;;18.30;32.40;;;;;;5061506;28;20152;-64
2022/11/18 01:30:34;;;;;;;33.03;4.68;;;18.30;32.70;;;;;;5068119;28;20074;-66
2022/11/18 01:33:02;;;;;;;27.50;4.70;;;18.20;32.80;;;;;;5065010;28;20081;-67
2022/11/18 01:35:39;;;;;;;28.42;5.55;;;18.20;33.10;;;;;;5063009;28;20126;-66
2022/11/18 01:38:07;;;;;;;24.83;4.78;;;18.10;33.50;;;;;;5061479;28;20070;-66
2022/11/18 01:40:35;;;;;;;28.92;6.22;;;18.00;33.70;;;;;;5063211;28;20085;-65
2022/11/18 01:43:01;;;;;;;29.25;5.60;;;17.90;34.00;;;;;;5058254;28;20462;-65
2022/11/18 01:45:36;;;;;;;32.00;5.85;;;17.90;34.00;;;;;;5059660;28;20142;-66
2022/11/18 01:48:09;;;;;;;36.92;6.15;;;17.80;34.10;;;;;;5061917;28;20092;-67
2022/11/18 01:50:38;;;;;;;27.02;5.82;;;17.70;34.10;;;;;;5047258;28;20434;-67
2022/11/18 01:53:14;;;;;;;22.20;5.28;;;17.70;34.30;;;;;;5060087;28;20147;-66
2022/11/18 01:55:45;;;;;;;38.65;5.75;;;17.70;34.40;;;;;;5062823;28;20484;-65
2022/11/18 01:58:21;;;;;;;27.85;5.97;;;17.70;34.10;;;;;;5062738;28;20547;-67
2022/11/18 02:00:48;;;;;;;28.67;6.03;;;17.60;34.30;;;;;;5057615;28;20061;-67
2022/11/18 02:03:15;;;;;;;38.20;6.15;;;17.60;33.90;;;;;;5061697;28;20088;-67
2022/11/18 02:05:45;;;;;;;43.03;6.70;;;17.60;34.30;;;;;;5060569;28;20081;-65
2022/11/18 02:08:13;;;;;;;37.10;6.93;;;17.60;33.40;;;;;;5061659;28;20542;-65
2022/11/18 02:10:39;;;;;;;36.17;6.72;;;17.60;33.40;;;;;;5057313;28;20080;-67
2022/11/18 02:13:06;;;;;;;41.00;7.63;;;17.50;33.70;;;;;;5060492;28;20096;-66
2022/11/18 02:16:14;;;;;;;41.28;7.35;;;17.50;33.60;;;;;;5056498;28;20085;-68
2022/11/18 02:19:15;;;;;;;48.17;7.75;;;17.50;34.00;;;;;;5046391;28;20096;-66
2022/11/18 02:21:44;;;;;;;38.03;8.98;;;17.50;34.00;;;;;;5017447;28;20178;-67
2022/11/18 02:24:38;;;;;;;48.13;8.27;;;17.40;33.00;;;;;;5060698;28;20081;-65
2022/11/18 02:27:13;;;;;;;57.80;9.82;;;17.40;33.10;;;;;;5061328;28;20069;-66
2022/11/18 02:29:52;;;;;;;39.83;8.80;;;17.40;33.80;;;;;;5061102;28;20119;-66
2022/11/18 02:32:23;;;;;;;63.65;9.98;;;17.40;34.20;;;;;;5057257;28;20163;-64
2022/11/18 02:34:56;;;;;;;62.42;10.95;;;17.40;34.30;;;;;;5061325;28;20093;-68
2022/11/18 02:37:26;;;;;;;55.90;10.38;;;17.40;34.90;;;;;;5062232;28;20074;-66
2022/11/18 02:39:59;;;;;;;63.85;12.10;;;17.40;34.90;;;;;;5062160;28;20073;-68
2022/11/18 02:42:28;;;;;;;65.30;12.23;;;17.40;34.70;;;;;;5051732;28;20065;-67
2022/11/18 02:45:00;;;;;;;86.10;16.15;;;17.30;34.70;;;;;;5063494;28;20076;-66
2022/11/18 02:47:28;;;;;;;63.75;15.43;;;17.30;34.70;;;;;;5059933;28;20080;-67
2022/11/18 02:50:00;;;;;;;76.85;17.63;;;17.20;35.30;;;;;;5055663;28;20135;-68
2022/11/18 02:52:27;;;;;;;77.90;17.75;;;17.20;34.60;;;;;;5055776;28;20073;-67
2022/11/18 02:54:55;;;;;;;84.55;16.45;;;17.20;34.60;;;;;;5049660;28;20090;-67
2022/11/18 02:57:24;;;;;;;77.30;16.95;;;17.20;34.70;;;;;;5055056;28;20070;-64
2022/11/18 02:59:50;;;;;;;95.13;24.70;;;17.10;35.40;;;;;;5065237;28;20077;-67
2022/11/18 03:02:19;;;;;;;78.40;17.17;;;17.10;35.20;;;;;;5048430;28;20069;-66
2022/11/18 03:04:48;;;;;;;93.15;17.05;;;17.00;35.40;;;;;;5049619;28;20081;-64
2022/11/18 03:07:25;;;;;;;76.88;19.38;;;17.00;36.00;;;;;;5038715;28;20098;-66
2022/11/18 03:09:51;;;;;;;;;;;17.00;36.50;;;;;;5032663;28;20077;-65
2022/11/18 03:12:57;;;;;;;97.30;19.00;;;16.90;36.20;;;;;;5062603;28;19957;-64
2022/11/18 03:15:23;;;;;;;87.45;20.67;;;16.90;35.90;;;;;;5052185;28;20084;-66
2022/11/18 03:17:52;;;;;;;;;;;16.80;36.20;;;;;;5060088;28;20089;-65
2022/11/18 03:20:26;;;;;;;91.55;19.80;;;16.80;36.90;;;;;;5057192;28;19957;-66
2022/11/18 03:23:11;;;;;;;98.05;21.20;;;16.70;36.90;;;;;;5050249;28;20092;-65
2022/11/18 03:25:54;;;;;;;101.90;21.08;;;16.70;36.80;;;;;;5049645;28;20089;-64
2022/11/18 03:28:39;;;;;;;92.38;20.90;;;16.70;37.00;;;;;;5040242;28;20524;-64
2022/11/18 03:31:27;;;;;;;112.03;22.80;;;16.60;37.50;;;;;;5049134;28;20079;-67
2022/11/18 03:34:04;;;;;;;90.97;21.60;;;16.50;37.90;;;;;;5058827;28;20080;-65
2022/11/18 03:36:36;;;;;;;112.40;23.88;;;16.60;38.70;;;;;;5066275;28;20164;-63
2022/11/18 03:39:05;;;;;;;111.28;21.05;;;16.50;38.60;;;;;;5054914;28;20100;-64
2022/11/18 03:41:37;;;;;;;107.07;22.73;;;16.50;38.60;;;;;;5049181;28;20073;-64
2022/11/18 03:44:08;;;;;;;99.05;25.15;;;16.40;39.10;;;;;;5057662;28;20123;-65
2022/11/18 03:46:45;;;;;;;92.60;22.60;;;16.40;39.40;;;;;;5054990;28;20096;-65
2022/11/18 03:49:25;;;;;;;97.65;22.23;;;16.30;39.90;;;;;;5049555;28;21029;-65
2022/11/18 03:52:00;;;;;;;106.95;24.60;;;16.30;40.20;;;;;;5049198;28;20077;-67
2022/11/18 03:54:30;;;;;;;112.85;23.65;;;16.20;39.70;;;;;;5048755;28;20086;-67
2022/11/18 03:57:01;;;;;;;95.13;23.23;;;16.20;39.30;;;;;;5055113;28;20066;-66
2022/11/18 03:59:34;;;;;;;109.82;24.80;;;16.20;39.70;;;;;;5049014;28;20072;-66
2022/11/18 04:02:16;;;;;;;99.95;24.67;;;16.10;39.90;;;;;;5049816;28;20422;-65
2022/11/18 04:04:48;;;;;;;125.00;27.42;;;16.00;40.10;;;;;;5049252;28;20219;-67
2022/11/18 04:07:38;;;;;;;125.53;27.13;;;16.00;39.50;;;;;;5048895;28;20104;-66
2022/11/18 04:10:17;;;;;;;99.15;25.15;;;15.90;39.30;;;;;;5048106;28;20076;-66
2022/11/18 04:12:50;;;;;;;123.13;28.27;;;15.90;40.30;;;;;;5048284;28;20449;-66
2022/11/18 04:15:16;;;;;;;121.28;25.45;;;15.90;39.90;;;;;;5049040;28;20085;-64
2022/11/18 04:17:43;;;;;;;130.57;29.63;;;15.90;39.80;;;;;;5048619;28;20070;-65
2022/11/18 04:20:19;;;;;;;;;;;15.80;40.60;;;;;;5048656;28;20139;-65
2022/11/18 04:22:47;;;;;;;121.75;28.67;;;15.80;40.40;;;;;;5062545;28;20049;-66
2022/11/18 04:25:13;;;;;;;123.60;29.05;;;15.80;40.50;;;;;;5048944;28;20156;-66
2022/11/18 04:27:40;;;;;;;114.88;28.63;;;15.70;40.30;;;;;;5049025;28;20581;-66
2022/11/18 04:30:07;;;;;;;;;;;15.70;40.30;;;;;;5067042;28;20515;-67
2022/11/18 04:32:33;;;;;;;136.38;30.40;;;15.70;40.80;;;;;;5050788;28;19977;-67
2022/11/18 04:35:00;;;;;;;113.53;26.30;;;15.60;41.50;;;;;;5048152;28;20461;-66
2022/11/18 04:37:26;;;;;;;;;;;15.60;41.80;;;;;;5048108;28;20065;-67
2022/11/18 04:39:52;;;;;;;128.80;26.92;;;15.60;42.20;;;;;;5049460;28;20381;-66
2022/11/18 04:42:18;;;;;;;;;;;15.60;42.20;;;;;;5031107;28;20076;-68
2022/11/18 04:44:44;;;;;;;139.43;29.00;;;15.50;42.50;;;;;;5047075;28;19964;-67
2022/11/18 04:47:10;;;;;;;;;;;15.50;41.70;;;;;;5052443;28;20096;-65
2022/11/18 04:49:37;;;;;;;109.57;26.05;;;15.50;41.70;;;;;;5050275;28;19981;-66
2022/11/18 04:52:03;;;;;;;;;;;15.40;41.70;;;;;;5056467;28;20124;-66
2022/11/18 04:54:30;;;;;;;113.55;25.92;;;15.40;41.60;;;;;;5051741;28;19973;-67
2022/11/18 04:56:56;;;;;;;112.03;26.08;;;15.40;41.60;;;;;;5057940;28;20065;-66
2022/11/18 04:59:24;;;;;;;;;;;15.40;42.40;;;;;;5054765;28;20096;-66
2022/11/18 05:01:50;;;;;;;;;;;15.40;42.80;;;;;;5067319;28;19965;-68
2022/11/18 05:04:25;;;;;;;99.55;25.75;;;15.40;42.50;;;;;;5053246;28;20333;-66
2022/11/18 05:06:52;;;;;;;103.47;25.67;;;15.30;42.80;;;;;;5053913;28;20076;-67
2022/11/18 05:09:19;;;;;;;98.22;24.52;;;15.20;43.30;;;;;;5033925;28;20172;-67
2022/11/18 05:14:31;;;;;;;104.80;25.67;;;15.20;43.60;;;;;;5051965;28;20103;-65
2022/11/18 05:16:59;;;;;;;109.20;26.33;;;15.20;43.70;;;;;;5051806;28;20074;-67
2022/11/18 05:19:26;;;;;;;122.05;25.67;;;15.20;43.80;;;;;;5051263;28;20546;-69
2022/11/18 05:21:52;;;;;;;128.68;26.13;;;15.20;43.10;;;;;;5055523;28;20156;-66
2022/11/18 05:24:19;;;;;;;127.40;26.48;;;15.30;42.70;;;;;;5051895;28;20104;-68
2022/11/18 05:26:46;;;;;;;119.65;26.75;;;15.20;42.40;;;;;;5051707;28;20069;-68
2022/11/18 05:29:12;;;;;;;;;;;15.30;42.90;;;;;;5058383;28;20463;-67
2022/11/18 05:31:38;;;;;;;105.35;25.60;;;15.20;43.20;;;;;;5065337;28;20075;-65
2022/11/18 05:34:04;;;;;;;;;;;15.20;43.70;;;;;;5050496;28;20073;-67
2022/11/18 05:36:31;;;;;;;114.90;27.75;;;15.20;43.30;;;;;;5051221;28;19957;-67
2022/11/18 05:39:00;;;;;;;;;;;15.20;42.80;;;;;;5049475;28;20073;-70
2022/11/18 05:44:11;;;;;;;136.13;38.30;;;15.10;43.70;;;;;;5055078;28;20548;-69
2022/11/18 05:46:37;;;;;;;145.25;42.78;;;15.10;43.70;;;;;;5066452;28;20073;-69
2022/11/18 05:49:04;;;;;;;133.85;42.15;;;15.00;43.70;;;;;;5050555;28;20177;-67
2022/11/18 05:51:30;;;;;;;;;;;15.00;44.00;;;;;;5050753;28;20132;-66
2022/11/18 05:53:57;;;;;;;129.15;45.55;;;15.00;45.20;;;;;;5069323;28;20015;-68
2022/11/18 05:56:29;;;;;;;146.02;46.42;;;15.00;44.90;;;;;;5056687;28;20093;-68
2022/11/18 05:58:55;;;;;;;124.35;42.78;;;15.00;45.10;;;;;;5057340;28;20119;-65
2022/11/18 06:01:45;;;;;;;144.20;45.42;;;14.90;45.70;;;;;;5060610;28;20073;-65
2022/11/18 06:04:25;;;;;;;149.15;42.65;;;14.90;46.20;;;;;;5050253;28;20176;-66
2022/11/18 06:06:58;;;;;;;138.73;41.78;;;14.90;46.00;;;;;;5050878;28;20073;-65
2022/11/18 06:09:30;;;;;;;142.85;38.97;;;14.90;46.20;;;;;;5050561;28;20092;-66
2022/11/18 06:11:59;;;;;;;117.82;37.58;;;14.80;45.90;;;;;;5050707;28;20543;-67
2022/11/18 06:14:31;;;;;;;142.25;41.05;;;14.80;46.60;;;;;;5051418;28;20525;-68
2022/11/18 06:17:01;;;;;;;131.98;40.35;;;14.70;45.40;;;;;;5063435;28;20153;-68
2022/11/18 06:19:29;;;;;;;133.48;42.35;;;14.70;45.70;;;;;;5051099;28;20070;-66
2022/11/18 06:21:55;;;;;;;132.60;43.95;;;14.70;46.10;;;;;;5061968;28;20066;-68
2022/11/18 06:24:22;;;;;;;116.80;42.97;;;14.60;45.60;;;;;;5061870;28;20085;-67
2022/11/18 06:26:49;;;;;;;122.50;43.35;;;14.60;45.60;;;;;;5058680;28;20073;-66
2022/11/18 06:29:17;;;;;;;127.95;43.75;;;14.50;45.60;;;;;;5050574;28;20582;-67
2022/11/18 06:31:44;;;;;;;133.48;42.75;;;14.50;45.70;;;;;;5053737;28;20535;-65
2022/11/18 06:34:10;;;;;;;;;;;14.40;46.10;;;;;;5049238;28;20081;-67
2022/11/18 06:36:36;;;;;;;149.88;47.90;;;14.30;46.10;;;;;;5049644;28;20022;-68
2022/11/18 06:39:04;;;;;;;146.35;44.00;;;14.40;45.80;;;;;;5052521;28;20164;-65
2022/11/18 06:41:31;;;;;;;142.75;44.33;;;14.30;45.80;;;;;;5051292;28;20081;-67
2022/11/18 06:43:57;;;;;;;145.27;40.97;;;14.40;45.80;;;;;;5047126;28;20074;-67
2022/11/18 06:49:08;;;;;;;129.75;34.97;;;14.20;45.90;;;;;;5061848;28;19960;-67
2022/11/18 06:51:34;;;;;;;;;;;14.20;45.70;;;;;;5052630;28;20071;-65
2022/11/18 06:54:00;;;;;;;117.57;32.67;;;14.10;45.40;;;;;;5034811;28;19972;-67
2022/11/18 06:56:26;;;;;;;;;;;14.20;45.30;;;;;;5064112;28;20069;-64
2022/11/18 06:58:56;;;;;;;119.43;31.30;;;14.20;45.50;;;;;;5049030;28;20059;-67
2022/11/18 07:01:25;;;;;;;103.95;28.60;;;14.20;45.80;;;;;;5050539;28;20120;-66
2022/11/18 07:03:52;;;;;;;123.28;28.23;;;14.20;45.70;;;;;;5048010;28;20111;-66
2022/11/18 07:06:21;;;;;;;118.07;27.45;;;14.20;45.40;;;;;;5048839;28;20069;-65
2022/11/18 07:08:49;;;;;;;79.45;26.27;;;14.20;45.40;;;;;;5051123;28;20119;-68
2022/11/18 07:11:18;;;;;;;99.57;26.08;;;14.10;45.50;;;;;;5048317;28;20157;-66
2022/11/18 07:13:46;;;;;;;115.43;25.15;;;14.10;46.20;;;;;;5054157;28;20171;-66
2022/11/18 07:16:20;;;;;;;118.18;26.02;;;14.10;46.00;;;;;;5044037;28;20116;-66
2022/11/18 07:18:48;;;;;;;92.20;23.75;;;14.10;46.20;;;;;;5066502;28;20088;-67
2022/11/18 07:21:17;;;;;;;89.82;23.58;;;14.00;46.30;;;;;;5054453;28;20070;-68
2022/11/18 07:23:44;;;;;;;91.50;23.98;;;14.00;46.20;;;;;;5049105;28;20592;-66
2022/11/18 07:26:11;;;;;;;88.75;23.05;;;13.90;46.10;;;;;;5064578;28;20434;-65
2022/11/18 07:28:38;;;;;;;96.13;23.73;;;13.80;46.30;;;;;;5062654;28;20132;-66
2022/11/18 07:31:10;;;;;;;90.47;24.08;;;13.80;47.10;;;;;;5058491;28;20156;-67
2022/11/18 07:33:37;;;;;;;108.65;32.28;;;13.80;47.00;;;;;;5048348;28;20077;-68
2022/11/18 07:36:18;;;;;;;109.10;37.42;;;13.70;47.50;;;;;;5052390;28;20446;-68
2022/11/18 07:38:45;;;;;;;104.55;22.85;;;13.70;47.50;;;;;;5058742;28;20093;-65
2022/11/18 07:41:13;;;;;;;78.18;22.23;;;13.60;47.40;;;;;;5067046;28;20073;-66
2022/11/18 07:43:40;;;;;;;83.40;23.05;;;13.50;47.60;;;;;;5048832;28;20123;-65
2022/11/18 07:46:31;;;;;;;93.25;24.52;;;13.40;48.10;;;;;;5048172;28;20523;-66
2022/11/18 07:48:59;;;;;;;93.70;23.95;;;13.40;48.60;;;;;;5048667;28;20128;-64
2022/11/18 07:51:28;;;;;;;92.90;22.42;;;13.40;48.60;;;;;;5047965;28;20206;-67
2022/11/18 07:53:55;;;;;;;85.28;22.55;;;13.40;48.70;;;;;;5060418;28;20530;-67
2022/11/18 07:56:21;;;;;;;;;;;13.40;49.00;;;;;;5057779;28;20538;-68
2022/11/18 07:58:53;;;;;;;76.65;23.10;;;13.30;49.60;;;;;;5059259;28;19957;-67
2022/11/18 08:01:21;;;;;;;90.65;20.90;;;13.30;49.40;;;;;;5053517;28;20148;-67
2022/11/18 08:03:48;;;;;;;78.90;22.75;;;13.20;49.20;;;;;;5063733;28;20069;-69
2022/11/18 08:06:17;;;;;;;82.35;22.05;;;13.20;49.30;;;;;;5048753;28;20105;-66
2022/11/18 08:08:44;;;;;;;93.25;22.20;;;13.10;50.10;;;;;;5051823;28;21427;-67
2022/11/18 08:11:15;;;;;;;86.07;22.50;;;12.90;50.00;;;;;;5062555;28;20073;-65
2022/11/18 08:13:42;;;;;;;80.07;21.75;;;12.90;49.90;;;;;;5051946;28;20465;-67
2022/11/18 08:16:15;;;;;;;;;;;12.90;50.70;;;;;;5061046;28;20515;-68
2022/11/18 08:18:42;;;;;;;105.50;24.00;;;12.90;51.00;;;;;;5057095;28;19968;-67
2022/11/18 08:21:09;;;;;;;97.28;24.52;;;12.80;50.50;;;;;;5056380;28;20966;-67
2022/11/18 08:23:36;;;;;;;85.63;22.23;;;12.80;50.60;;;;;;5066270;28;20523;-67
2022/11/18 08:26:04;;;;;;;;;;;12.80;50.40;;;;;;5050955;28;20526;-68
2022/11/18 08:28:31;;;;;;;63.50;21.25;;;12.70;50.20;;;;;;5054501;28;19988;-66
2022/11/18 08:30:58;;;;;;;84.38;20.08;;;12.60;51.00;;;;;;5051208;28;20074;-68
2022/11/18 08:33:24;;;;;;;74.13;19.65;;;12.40;51.80;;;;;;5051493;28;20077;-67
2022/11/18 08:35:51;;;;;;;61.35;18.33;;;12.40;51.20;;;;;;5056282;28;20558;-68
2022/11/18 08:38:18;;;;;;;80.18;20.38;;;12.40;51.60;;;;;;5050554;28;20074;-66
2022/11/18 08:40:49;;;;;;;71.50;18.88;;;12.40;51.80;;;;;;5059904;28;20093;-67
2022/11/18 08:43:16;;;;;;;74.10;18.77;;;12.30;51.30;;;;;;5051674;28;20065;-65
2022/11/18 08:45:42;;;;;;;;;;;12.30;51.70;;;;;;5050533;28;20773;-68
2022/11/18 08:48:08;;;;;;;78.38;19.88;;;12.30;51.60;;;;;;5051392;28;19980;-67
2022/11/18 08:50:34;;;;;;;;;;;12.30;51.80;;;;;;5051234;28;20112;-68
2022/11/18 08:53:01;;;;;;;64.93;19.73;;;12.30;52.20;;;;;;5051141;28;19957;-66
2022/11/18 08:55:27;;;;;;;79.10;19.95;;;12.30;52.00;;;;;;5050890;28;20184;-68
2022/11/18 08:57:53;;;;;;;;;;;12.20;53.40;;;;;;5053870;28;20100;-73
2022/11/18 09:00:20;;;;;;;62.90;17.05;;;12.30;52.90;;;;;;5056094;28;20419;-72
2022/11/18 09:02:46;;;;;;;;;;;12.50;52.30;;;;;;5059942;28;20603;-73
2022/11/18 09:05:12;;;;;;;40.30;13.60;;;12.60;50.40;;;;;;5061615;28;19973;-73
2022/11/18 09:07:38;;;;;;;;;;;12.60;49.10;;;;;;5062781;28;20117;-71
2022/11/18 09:10:05;;;;;;;34.50;11.63;;;12.70;49.30;;;;;;5050484;28;19964;-68
2022/11/18 09:12:32;;;;;;;47.90;11.05;;;12.70;48.30;;;;;;5058464;28;20129;-71
2022/11/18 09:14:58;;;;;;;;;;;12.70;47.50;;;;;;5064487;28;20119;-69
2022/11/18 09:17:24;;;;;;;31.13;9.52;;;12.80;46.70;;;;;;5061059;28;20433;-70
2022/11/18 09:19:50;;;;;;;;;;;12.80;46.80;;;;;;5061438;28;20070;-68
2022/11/18 09:22:16;;;;;;;22.60;7.78;;;12.90;45.10;;;;;;5059601;28;20035;-71
2022/11/18 09:24:43;;;;;;;15.68;6.10;;;12.90;44.00;;;;;;5060153;28;20566;-72
2022/11/18 09:27:10;;;;;;;20.70;6.65;;;12.90;43.70;;;;;;5061578;28;20077;-68
2022/11/18 09:29:36;;;;;;;16.98;5.53;;;12.90;42.30;;;;;;5057332;28;20585;-70
2022/11/18 09:32:03;;;;;;;21.20;5.68;;;12.90;42.20;;;;;;5064322;28;20090;-71
2022/11/18 09:34:29;;;;;;;14.68;3.55;;;12.80;41.90;;;;;;5060124;28;20124;-75
2022/11/18 09:36:55;;;;;;;;;;;12.80;40.80;;;;;;5055923;28;20070;-71
2022/11/18 09:39:24;;;;;;;10.57;3.55;;;12.90;39.70;;;;;;5041122;28;20373;-72
2022/11/18 09:42:32;;;;;;;9.23;2.83;;;12.90;39.70;;;;;;5055562;28;20073;-71
2022/11/18 09:45:02;;;;;;;11.40;2.53;;;13.00;39.10;;;;;;5055463;28;20092;-70
2022/11/18 09:47:30;;;;;;;10.82;2.80;;;13.00;39.10;;;;;;5049968;28;20509;-72
2022/11/18 09:50:03;;;;;;;6.57;2.35;;;12.90;39.00;;;;;;5056617;28;20084;-69
2022/11/18 09:53:08;;;;;;;7.85;2.42;;;12.90;39.10;;;;;;5062568;28;20077;-70
2022/11/18 09:55:39;;;;;;;7.05;2.40;;;12.90;39.30;;;;;;5047224;28;20115;-72
2022/11/18 09:58:06;;;;;;;6.20;1.88;;;12.90;38.90;;;;;;5048527;28;20074;-70
2022/11/18 10:00:33;;;;;;;6.25;2.17;;;12.90;38.80;;;;;;5042697;28;20065;-69
2022/11/18 10:03:03;;;;;;;7.82;2.17;;;12.90;39.50;;;;;;5050802;28;20093;-70
2022/11/18 10:05:57;;;;;;;9.05;2.42;;;12.80;40.50;;;;;;5059081;28;20068;-69
2022/11/18 10:08:32;;;;;;;7.60;2.75;;;12.70;41.80;;;;;;5056194;28;20155;-70
2022/11/18 10:11:17;;;;;;;8.90;2.85;;;12.70;41.60;;;;;;5012460;28;20076;-70
2022/11/18 10:14:09;;;;;;;14.15;3.53;;;12.60;41.30;;;;;;5040341;28;20101;-71
2022/11/18 10:16:46;;;;;;;9.57;2.80;;;12.50;41.20;;;;;;5053088;28;20485;-71
2022/11/18 10:19:26;;;;;;;12.25;2.60;;;12.50;40.50;;;;;;5063251;28;20629;-69
2022/11/18 10:22:28;;;;;;;7.90;2.30;;;12.50;40.40;;;;;;5055542;28;20108;-69
2022/11/18 10:24:57;;;;;;;11.70;2.50;;;12.40;40.30;;;;;;5059267;28;20118;-70
2022/11/18 10:27:33;;;;;;;5.68;1.80;;;12.50;40.50;;;;;;5064447;28;20104;-70
2022/11/18 10:30:03;;;;;;;3.17;1.70;;;12.40;39.90;;;;;;5062269;28;20073;-72
2022/11/18 10:32:33;;;;;;;4.53;1.42;;;12.40;39.20;;;;;;5058501;28;20076;-71
2022/11/18 10:35:02;;;;;;;4.07;1.77;;;12.40;39.20;;;;;;5055946;28;20547;-72
2022/11/18 10:37:33;;;;;;;6.43;2.20;;;12.40;39.10;;;;;;5062737;28;20065;-74
2022/11/18 10:40:01;;;;;;;5.05;1.63;;;12.40;39.80;;;;;;5029513;28;20073;-70
2022/11/18 10:42:40;;;;;;;6.57;6.07;;;12.40;40.50;;;;;;5039890;28;20554;-71
2022/11/18 10:45:30;;;;;;;17.13;7.78;;;12.30;40.30;;;;;;5062569;28;20121;-69
2022/11/18 10:48:14;;;;;;;6.78;1.80;;;12.20;39.80;;;;;;5062229;28;20469;-70
2022/11/18 10:50:53;;;;;;;5.63;1.98;;;12.20;39.70;;;;;;5056698;28;20097;-70
2022/11/18 10:53:34;;;;;;;9.88;2.22;;;12.20;40.20;;;;;;5054411;28;20204;-69
2022/11/18 10:56:07;;;;;;;6.70;2.38;;;12.20;41.20;;;;;;5056361;28;20081;-71
2022/11/18 10:58:50;;;;;;;8.82;2.15;;;12.00;41.50;;;;;;5061090;28;20069;-69
2022/11/18 11:01:21;;;;;;;6.60;2.30;;;12.10;41.80;;;;;;5057217;28;20172;-69
2022/11/18 11:04:11;;;;;;;5.13;1.92;;;12.10;41.90;;;;;;5053350;28;20072;-69
2022/11/18 11:06:37;;;;;;;8.27;2.05;;;12.00;41.00;;;;;;5059989;28;20069;-71
2022/11/18 11:09:06;;;;;;;10.82;2.30;;;11.90;41.80;;;;;;5058574;28;20073;-70
2022/11/18 11:11:43;;;;;;;11.65;2.55;;;11.90;41.90;;;;;;5063424;28;20082;-69
2022/11/18 11:14:27;;;;;;;10.25;2.40;;;11.90;41.60;;;;;;5062222;28;20089;-68
2022/11/18 11:16:59;;;;;;;8.07;2.50;;;11.80;41.00;;;;;;5056525;28;20081;-70
2022/11/18 11:19:36;;;;;;;6.97;2.65;;;11.80;40.70;;;;;;5061497;28;20084;-70
2022/11/18 11:22:07;;;;;;;5.82;2.75;;;11.80;40.50;;;;;;5054868;28;20130;-71
2022/11/18 11:24:34;;;;;;;13.20;2.92;;;11.70;40.20;;;;;;5058813;28;20495;-70
2022/11/18 11:27:32;;;;;;;5.63;2.53;;;11.70;40.40;;;;;;5054842;28;20070;-69
2022/11/18 11:30:18;;;;;;;5.30;2.38;;;11.70;39.70;;;;;;5057783;28;20096;-70
2022/11/18 11:33:04;;;;;;;4.43;1.80;;;11.70;40.10;;;;;;5053717;28;20069;-68
2022/11/18 11:35:49;;;;;;;5.07;1.70;;;11.70;39.70;;;;;;5056544;28;20093;-70
2022/11/18 11:38:40;;;;;;;4.20;2.20;;;11.60;40.30;;;;;;5053763;28;20069;-70
2022/11/18 11:41:22;;;;;;;6.65;2.35;;;11.60;40.20;;;;;;5059442;28;20065;-69
2022/11/18 11:44:09;;;;;;;14.43;2.83;;;11.50;40.50;;;;;;5064151;28;20065;-72
2022/11/18 11:49:57;;;;;;;7.90;2.67;;;11.40;41.10;;;;;;5058392;28;20076;-69
2022/11/18 11:52:50;;;;;;;8.85;2.30;;;11.40;40.90;;;;;;5063030;28;20419;-72
2022/11/18 11:55:35;;;;;;;7.32;2.53;;;11.30;40.10;;;;;;5059361;28;20131;-71
2022/11/18 11:58:22;;;;;;;6.32;2.17;;;11.40;39.40;;;;;;5066164;28;20138;-72
2022/11/18 12:01:02;;;;;;;8.05;1.77;;;11.30;40.70;;;;;;5061398;28;20072;-68
2022/11/18 12:03:54;;;;;;;7.18;1.83;;;11.40;40.70;;;;;;5063869;28;20101;-71
2022/11/18 12:06:21;;;;;;;6.32;1.80;;;11.20;41.30;;;;;;5063424;28;20184;-70
2022/11/18 12:09:02;;;;;;;;;;;11.20;42.00;;;;;;5065835;28;20073;-71
2022/11/18 12:11:36;;;;;;;4.50;1.60;;;11.20;41.60;;;;;;5061890;28;20008;-72
2022/11/18 12:14:22;;;;;;;6.75;1.55;;;11.20;41.90;;;;;;5059496;28;20241;-71
2022/11/18 12:17:11;;;;;;;5.38;1.60;;;11.30;41.50;;;;;;5061711;28;20077;-72
2022/11/18 12:19:38;;;;;;;5.88;1.63;;;11.20;41.70;;;;;;5063372;28;20073;-71
2022/11/18 12:22:05;;;;;;;8.52;1.52;;;11.20;42.00;;;;;;5061551;28;20138;-68
2022/11/18 12:24:38;;;;;;;7.05;1.70;;;11.20;41.40;;;;;;5059430;28;20073;-71
2022/11/18 12:27:05;;;;;;;7.53;1.88;;;11.10;42.20;;;;;;5058998;28;20101;-67
2022/11/18 12:29:31;;;;;;;;;;;11.10;41.80;;;;;;5061073;28;20109;-68
2022/11/18 12:32:00;;;;;;;6.57;2.17;;;11.00;42.20;;;;;;5068704;28;19970;-71
2022/11/18 12:34:43;;;;;;;10.57;2.50;;;11.00;42.90;;;;;;5058746;28;20585;-69
2022/11/18 12:37:44;;;;;;;8.98;2.30;;;11.00;43.30;;;;;;5062926;28;20120;-72
2022/11/18 12:40:40;;;;;;;13.18;2.33;;;10.90;43.90;;;;;;5035679;28;20081;-71
2022/11/18 12:46:30;;;;;;;11.40;3.65;;;10.90;44.30;;;;;;5062208;28;20135;-69
2022/11/18 12:48:56;;;;;;;7.43;4.05;;;10.80;44.40;;;;;;5064195;28;20202;-70
2022/11/18 12:51:25;;;;;;;17.85;4.28;;;10.70;44.70;;;;;;5059998;28;20073;-71
2022/11/18 12:53:53;;;;;;;13.50;4.10;;;10.60;44.20;;;;;;5049214;28;20081;-70
2022/11/18 12:56:36;;;;;;;14.65;4.30;;;10.50;45.00;;;;;;5066812;28;20115;-70
2022/11/18 12:59:02;;;;;;;13.10;4.28;;;10.50;45.20;;;;;;5059531;28;20550;-70
2022/11/18 13:01:34;;;;;;;15.07;3.78;;;10.40;45.50;;;;;;5060634;28;20136;-68
2022/11/18 13:04:18;;;;;;;9.57;3.58;;;10.40;45.60;;;;;;5064514;28;20191;-71
2022/11/18 13:06:44;;;;;;;11.95;3.67;;;10.40;46.00;;;;;;5053947;28;20096;-70
2022/11/18 13:09:23;;;;;;;11.23;3.78;;;10.30;46.10;;;;;;5062569;28;20153;-68
2022/11/18 13:11:56;;;;;;;12.23;3.78;;;10.20;46.20;;;;;;5064155;28;20161;-70
2022/11/18 13:17:53;;;;;;;14.38;4.30;;;10.20;46.90;;;;;;5062745;28;20118;-71
2022/11/18 13:20:34;;;;;;;13.13;3.25;;;10.10;47.70;;;;;;5060062;28;20587;-70
2022/11/18 13:26:01;;;;;;;10.32;3.50;;;10.10;48.00;;;;;;5066580;28;20081;-69
2022/11/18 13:28:44;;;;;;;12.60;4.07;;;10.00;48.70;;;;;;5059532;28;20115;-69